SLRI

Details ICAO SLRI (RIB)
Name Cap De Av Selin Zeitun Lopez
Region Bolivia
Timezone America/La_Paz (UTC-4.0)
Plans Departing 3
Arriving 4
Stats Elevation 459 ft / 140 m (AMSL)
Location -11.016944° -66.099441°
Runways 1
Magnetic Variation 10.973° W
Sunrise 2018-05-25 10:36:16 UTC / 2018-05-25 06:36:16 Local
Sunset 2018-05-25 22:09:19 UTC / 2018-05-25 18:09:19 Local
Advertisement - Login to hide

Runways

ID Width Length Bearing (true) Bearing (mag) Surface Threshold Offset Overrun Length
13 84 ft / 26 m 5,912 ft / 1,802 m 126.00° 136.97° Concrete 0 ft / 0 m 0 ft / 0 m
31 84 ft / 26 m 5,912 ft / 1,802 m 306.00° 316.97° Concrete 0 ft / 0 m 0 ft / 0 m

Map

Weather


0- 5 10 15 20 25 30 35+ Temperature / ° C

Clouds and Precipitation
Forecast for 2018-05-25 12:00 UTC. Updated 4 hours ago

Ground ~20,000 ft ~40,000 ft Winds

METAR

SLRI 251500Z 16015KT 9999 NSC 24/18 Q1018

TAF

Not found
Warning: Do not use this data for real-world aviation or navigation. No guarantee of current accuracy is given.